sensor_id;sensor_type;location;lat;lon;timestamp;pressure;altitude;pressure_sealevel;temperature;humidity
9439;BME280;5176;42.622;25.386;2023-02-01T00:00:03;97151.53;;;3.13;92.53
9439;BME280;5176;42.622;25.386;2023-02-01T00:02:31;97154.88;;;3.16;91.82
9439;BME280;5176;42.622;25.386;2023-02-01T00:04:58;97154.13;;;3.13;92.30
9439;BME280;5176;42.622;25.386;2023-02-01T00:07:25;97149.22;;;3.05;92.92
9439;BME280;5176;42.622;25.386;2023-02-01T00:09:52;97154.34;;;3.07;93.10
9439;BME280;5176;42.622;25.386;2023-02-01T00:12:19;97162.09;;;3.08;93.74
9439;BME280;5176;42.622;25.386;2023-02-01T00:14:46;97156.16;;;3.05;93.60
9439;BME280;5176;42.622;25.386;2023-02-01T00:17:15;97163.78;;;3.09;93.33
9439;BME280;5176;42.622;25.386;2023-02-01T00:19:43;97167.22;;;3.10;92.15
9439;BME280;5176;42.622;25.386;2023-02-01T00:22:10;97169.94;;;3.05;91.09
9439;BME280;5176;42.622;25.386;2023-02-01T00:24:37;97168.25;;;3.04;92.77
9439;BME280;5176;42.622;25.386;2023-02-01T00:27:04;97171.53;;;3.09;92.76
9439;BME280;5176;42.622;25.386;2023-02-01T00:29:32;97170.44;;;3.16;91.78
9439;BME280;5176;42.622;25.386;2023-02-01T00:31:59;97173.81;;;3.18;91.12
9439;BME280;5176;42.622;25.386;2023-02-01T00:34:27;97165.03;;;3.22;90.34
9439;BME280;5176;42.622;25.386;2023-02-01T00:36:54;97165.97;;;3.20;90.11
9439;BME280;5176;42.622;25.386;2023-02-01T00:39:21;97165.81;;;3.24;90.23
9439;BME280;5176;42.622;25.386;2023-02-01T00:41:49;97170.25;;;3.21;90.53
9439;BME280;5176;42.622;25.386;2023-02-01T00:44:16;97168.41;;;3.24;89.67
9439;BME280;5176;42.622;25.386;2023-02-01T00:46:43;97165.69;;;3.27;90.30
9439;BME280;5176;42.622;25.386;2023-02-01T00:49:10;97163.28;;;3.23;90.83
9439;BME280;5176;42.622;25.386;2023-02-01T00:51:39;97158.78;;;3.28;90.55
9439;BME280;5176;42.622;25.386;2023-02-01T00:54:06;97157.19;;;3.24;89.75
9439;BME280;5176;42.622;25.386;2023-02-01T00:56:33;97159.84;;;3.22;89.94
9439;BME280;5176;42.622;25.386;2023-02-01T00:59:00;97154.81;;;3.18;89.06
9439;BME280;5176;42.622;25.386;2023-02-01T01:01:27;97159.78;;;3.24;88.22
9439;BME280;5176;42.622;25.386;2023-02-01T01:03:56;97159.56;;;3.30;87.71
9439;BME280;5176;42.622;25.386;2023-02-01T01:06:25;97159.50;;;3.32;88.17
9439;BME280;5176;42.622;25.386;2023-02-01T01:08:55;97156.00;;;3.33;87.21
9439;BME280;5176;42.622;25.386;2023-02-01T01:11:24;97147.34;;;3.34;87.99
9439;BME280;5176;42.622;25.386;2023-02-01T01:13:53;97154.16;;;3.36;88.28
9439;BME280;5176;42.622;25.386;2023-02-01T01:16:25;97143.97;;;3.32;88.58
9439;BME280;5176;42.622;25.386;2023-02-01T01:18:52;97148.38;;;3.30;87.09
9439;BME280;5176;42.622;25.386;2023-02-01T01:21:20;97153.75;;;3.23;86.80
9439;BME280;5176;42.622;25.386;2023-02-01T01:23:47;97152.34;;;3.15;87.52
9439;BME280;5176;42.622;25.386;2023-02-01T01:26:18;97156.78;;;3.11;87.66
9439;BME280;5176;42.622;25.386;2023-02-01T01:28:46;97160.97;;;3.15;88.63
9439;BME280;5176;42.622;25.386;2023-02-01T01:31:15;97161.81;;;3.16;86.53
9439;BME280;5176;42.622;25.386;2023-02-01T01:33:43;97155.88;;;3.12;86.09
9439;BME280;5176;42.622;25.386;2023-02-01T01:36:11;97149.06;;;3.10;84.07
9439;BME280;5176;42.622;25.386;2023-02-01T01:38:39;97153.34;;;3.11;83.92
9439;BME280;5176;42.622;25.386;2023-02-01T01:41:06;97145.72;;;3.06;83.24
9439;BME280;5176;42.622;25.386;2023-02-01T01:43:50;97151.75;;;3.07;83.54
9439;BME280;5176;42.622;25.386;2023-02-01T01:46:18;97155.16;;;3.09;82.77
9439;BME280;5176;42.622;25.386;2023-02-01T01:48:48;97152.28;;;3.16;82.57
9439;BME280;5176;42.622;25.386;2023-02-01T01:51:19;97157.34;;;3.19;81.26
9439;BME280;5176;42.622;25.386;2023-02-01T01:53:52;97149.78;;;3.13;82.75
9439;BME280;5176;42.622;25.386;2023-02-01T01:56:21;97152.22;;;3.18;81.49
9439;BME280;5176;42.622;25.386;2023-02-01T01:58:52;97154.75;;;3.19;81.76
9439;BME280;5176;42.622;25.386;2023-02-01T02:01:19;97162.31;;;3.25;81.31
9439;BME280;5176;42.622;25.386;2023-02-01T02:03:46;97158.94;;;3.23;81.98
9439;BME280;5176;42.622;25.386;2023-02-01T02:06:18;97160.69;;;3.23;80.89
9439;BME280;5176;42.622;25.386;2023-02-01T02:08:50;97172.00;;;3.20;80.34
9439;BME280;5176;42.622;25.386;2023-02-01T02:11:17;97158.69;;;3.06;78.80
9439;BME280;5176;42.622;25.386;2023-02-01T02:13:47;97156.91;;;3.08;79.74
9439;BME280;5176;42.622;25.386;2023-02-01T02:16:40;97159.38;;;3.11;78.93
9439;BME280;5176;42.622;25.386;2023-02-01T02:19:28;97156.91;;;3.08;78.87
9439;BME280;5176;42.622;25.386;2023-02-01T02:29:07;97153.50;;;3.06;76.43
9439;BME280;5176;42.622;25.386;2023-02-01T02:32:04;97150.19;;;3.03;76.31
9439;BME280;5176;42.622;25.386;2023-02-01T02:34:40;97147.53;;;3.04;76.10
9439;BME280;5176;42.622;25.386;2023-02-01T02:37:17;97150.88;;;3.08;76.23
9439;BME280;5176;42.622;25.386;2023-02-01T02:39:50;97157.69;;;3.10;76.56
9439;BME280;5176;42.622;25.386;2023-02-01T02:42:25;97155.88;;;3.12;74.96
9439;BME280;5176;42.622;25.386;2023-02-01T02:45:19;97157.47;;;3.16;75.11
9439;BME280;5176;42.622;25.386;2023-02-01T02:48:09;97151.75;;;3.07;73.69
9439;BME280;5176;42.622;25.386;2023-02-01T02:50:43;97158.38;;;3.15;73.96
9439;BME280;5176;42.622;25.386;2023-02-01T02:53:33;97155.72;;;3.17;73.32
9439;BME280;5176;42.622;25.386;2023-02-01T02:56:21;97151.38;;;3.17;73.81
9439;BME280;5176;42.622;25.386;2023-02-01T02:59:09;97156.41;;;3.22;73.88
9439;BME280;5176;42.622;25.386;2023-02-01T03:01:55;97150.44;;;3.20;73.38
9439;BME280;5176;42.622;25.386;2023-02-01T03:04:39;97157.91;;;3.27;72.09
9439;BME280;5176;42.622;25.386;2023-02-01T03:09:58;97158.59;;;3.33;70.07
9439;BME280;5176;42.622;25.386;2023-02-01T03:12:31;97162.72;;;3.38;71.14
9439;BME280;5176;42.622;25.386;2023-02-01T03:15:13;97174.16;;;3.33;70.76
9439;BME280;5176;42.622;25.386;2023-02-01T03:17:41;97178.59;;;3.29;69.62
9439;BME280;5176;42.622;25.386;2023-02-01T03:20:12;97171.78;;;3.26;69.61
9439;BME280;5176;42.622;25.386;2023-02-01T03:22:42;97171.47;;;3.11;67.47
9439;BME280;5176;42.622;25.386;2023-02-01T03:25:13;97187.09;;;3.09;66.88
9439;BME280;5176;42.622;25.386;2023-02-01T03:27:48;97186.13;;;3.12;66.63
9439;BME280;5176;42.622;25.386;2023-02-01T03:30:21;97185.16;;;3.14;66.13
9439;BME280;5176;42.622;25.386;2023-02-01T03:32:54;97173.94;;;3.14;64.02
9439;BME280;5176;42.622;25.386;2023-02-01T03:35:30;97172.59;;;3.04;64.06
9439;BME280;5176;42.622;25.386;2023-02-01T03:38:06;97193.63;;;3.19;63.56
9439;BME280;5176;42.622;25.386;2023-02-01T03:40:36;97197.03;;;3.21;62.97
9439;BME280;5176;42.622;25.386;2023-02-01T03:43:06;97197.31;;;3.12;62.34
9439;BME280;5176;42.622;25.386;2023-02-01T03:45:40;97194.78;;;3.11;63.80
9439;BME280;5176;42.622;25.386;2023-02-01T03:48:11;97193.09;;;3.10;63.26
9439;BME280;5176;42.622;25.386;2023-02-01T03:50:44;97192.06;;;3.15;63.74
9439;BME280;5176;42.622;25.386;2023-02-01T03:53:17;97189.56;;;3.12;59.80
9439;BME280;5176;42.622;25.386;2023-02-01T03:55:46;97192.09;;;3.14;60.61
9439;BME280;5176;42.622;25.386;2023-02-01T03:58:14;97191.31;;;3.12;62.31
9439;BME280;5176;42.622;25.386;2023-02-01T04:00:45;97194.84;;;3.09;59.08
9439;BME280;5176;42.622;25.386;2023-02-01T04:03:13;97197.22;;;3.15;60.63
9439;BME280;5176;42.622;25.386;2023-02-01T04:05:40;97199.63;;;3.21;59.24
9439;BME280;5176;42.622;25.386;2023-02-01T04:08:10;97212.56;;;3.21;58.53
9439;BME280;5176;42.622;25.386;2023-02-01T04:10:38;97208.53;;;3.13;59.00
9439;BME280;5176;42.622;25.386;2023-02-01T04:13:05;97210.91;;;3.19;58.33
9439;BME280;5176;42.622;25.386;2023-02-01T04:15:33;97213.66;;;3.14;58.71
9439;BME280;5176;42.622;25.386;2023-02-01T04:18:00;97218.63;;;3.20;59.98
9439;BME280;5176;42.622;25.386;2023-02-01T04:20:28;97216.00;;;3.22;60.57
9439;BME280;5176;42.622;25.386;2023-02-01T04:22:55;97210.69;;;3.25;59.90
9439;BME280;5176;42.622;25.386;2023-02-01T04:25:22;97209.69;;;3.29;61.07
9439;BME280;5176;42.622;25.386;2023-02-01T04:27:51;97214.91;;;3.27;58.93
9439;BME280;5176;42.622;25.386;2023-02-01T04:30:18;97207.00;;;3.32;61.06
9439;BME280;5176;42.622;25.386;2023-02-01T04:32:45;97208.72;;;3.32;59.79
9439;BME280;5176;42.622;25.386;2023-02-01T04:35:12;97200.97;;;3.32;61.90
9439;BME280;5176;42.622;25.386;2023-02-01T04:37:39;97200.06;;;3.33;62.35
9439;BME280;5176;42.622;25.386;2023-02-01T04:40:07;97200.47;;;3.22;61.73
9439;BME280;5176;42.622;25.386;2023-02-01T04:42:35;97189.56;;;3.12;62.27
9439;BME280;5176;42.622;25.386;2023-02-01T04:45:04;97182.31;;;2.97;64.52
9439;BME280;5176;42.622;25.386;2023-02-01T04:47:31;97182.53;;;2.91;64.37
9439;BME280;5176;42.622;25.386;2023-02-01T04:49:59;97186.50;;;2.76;64.77
9439;BME280;5176;42.622;25.386;2023-02-01T04:52:26;97189.22;;;2.71;65.58
9439;BME280;5176;42.622;25.386;2023-02-01T04:54:53;97188.25;;;2.76;65.91
9439;BME280;5176;42.622;25.386;2023-02-01T04:57:23;97197.19;;;2.65;67.04
9439;BME280;5176;42.622;25.386;2023-02-01T04:59:50;97208.56;;;2.61;66.61
9439;BME280;5176;42.622;25.386;2023-02-01T05:02:19;97207.72;;;2.61;64.81
9439;BME280;5176;42.622;25.386;2023-02-01T05:04:49;97206.06;;;2.58;65.28
9439;BME280;5176;42.622;25.386;2023-02-01T05:07:16;97213.09;;;2.55;66.24
9439;BME280;5176;42.622;25.386;2023-02-01T05:09:43;97207.09;;;2.53;66.31
9439;BME280;5176;42.622;25.386;2023-02-01T05:12:10;97208.56;;;2.61;66.13
9439;BME280;5176;42.622;25.386;2023-02-01T05:14:54;97208.59;;;2.60;65.49
9439;BME280;5176;42.622;25.386;2023-02-01T05:17:23;97213.56;;;2.66;65.11
9439;BME280;5176;42.622;25.386;2023-02-01T05:19:50;97214.53;;;2.63;66.34
9439;BME280;5176;42.622;25.386;2023-02-01T05:22:17;97222.16;;;2.68;66.33
9439;BME280;5176;42.622;25.386;2023-02-01T05:24:44;97226.22;;;2.75;65.71
9439;BME280;5176;42.622;25.386;2023-02-01T05:27:12;97222.28;;;2.63;65.81
9439;BME280;5176;42.622;25.386;2023-02-01T05:29:39;97228.50;;;2.58;65.50
9439;BME280;5176;42.622;25.386;2023-02-01T05:32:06;97233.47;;;2.64;64.37
9439;BME280;5176;42.622;25.386;2023-02-01T05:34:36;97228.91;;;2.72;65.97
9439;BME280;5176;42.622;25.386;2023-02-01T05:37:03;97232.50;;;2.68;66.31
9439;BME280;5176;42.622;25.386;2023-02-01T05:39:31;97229.22;;;2.63;65.88
9439;BME280;5176;42.622;25.386;2023-02-01T05:41:58;97232.97;;;2.53;66.31
9439;BME280;5176;42.622;25.386;2023-02-01T05:44:25;97235.94;;;2.68;68.48
9439;BME280;5176;42.622;25.386;2023-02-01T05:46:52;97241.06;;;2.70;66.79
9439;BME280;5176;42.622;25.386;2023-02-01T05:49:19;97241.13;;;2.67;65.32
9439;BME280;5176;42.622;25.386;2023-02-01T05:51:48;97239.09;;;2.77;64.56
9439;BME280;5176;42.622;25.386;2023-02-01T05:54:15;97243.19;;;2.84;64.85
9439;BME280;5176;42.622;25.386;2023-02-01T05:56:42;97245.13;;;2.77;64.04
9439;BME280;5176;42.622;25.386;2023-02-01T05:59:09;97245.97;;;2.78;64.51
9439;BME280;5176;42.622;25.386;2023-02-01T06:01:36;97242.28;;;2.85;65.04
9439;BME280;5176;42.622;25.386;2023-02-01T06:04:03;97249.22;;;2.84;65.46
9439;BME280;5176;42.622;25.386;2023-02-01T06:06:31;97239.75;;;2.83;65.34
9439;BME280;5176;42.622;25.386;2023-02-01T06:08:59;97240.72;;;2.79;65.22
9439;BME280;5176;42.622;25.386;2023-02-01T06:11:26;97245.78;;;2.84;65.78
9439;BME280;5176;42.622;25.386;2023-02-01T06:13:54;97238.50;;;2.95;66.28
9439;BME280;5176;42.622;25.386;2023-02-01T06:16:21;97251.97;;;3.05;67.28
9439;BME280;5176;42.622;25.386;2023-02-01T06:18:48;97240.91;;;2.99;65.88
9439;BME280;5176;42.622;25.386;2023-02-01T06:21:16;97248.69;;;2.99;64.79
9439;BME280;5176;42.622;25.386;2023-02-01T06:23:49;97257.16;;;3.05;65.30
9439;BME280;5176;42.622;25.386;2023-02-01T06:26:17;97260.25;;;3.16;64.23
9439;BME280;5176;42.622;25.386;2023-02-01T06:28:45;97253.19;;;3.19;64.07
9439;BME280;5176;42.622;25.386;2023-02-01T06:31:12;97257.19;;;3.30;64.60
9439;BME280;5176;42.622;25.386;2023-02-01T06:33:39;97261.19;;;3.38;65.13
9439;BME280;5176;42.622;25.386;2023-02-01T06:36:09;97261.88;;;3.43;66.85
9439;BME280;5176;42.622;25.386;2023-02-01T06:38:37;97255.66;;;3.47;66.48
9439;BME280;5176;42.622;25.386;2023-02-01T06:41:05;97262.38;;;3.53;67.75
9439;BME280;5176;42.622;25.386;2023-02-01T06:43:33;97270.06;;;3.56;68.88
9439;BME280;5176;42.622;25.386;2023-02-01T06:46:01;97267.56;;;3.53;65.28
9439;BME280;5176;42.622;25.386;2023-02-01T06:48:29;97273.72;;;3.50;63.96
9439;BME280;5176;42.622;25.386;2023-02-01T06:50:58;97270.16;;;3.53;64.84
9439;BME280;5176;42.622;25.386;2023-02-01T06:53:26;97272.81;;;3.51;61.55
9439;BME280;5176;42.622;25.386;2023-02-01T06:55:55;97270.44;;;3.45;60.42
9439;BME280;5176;42.622;25.386;2023-02-01T06:58:22;97280.88;;;3.44;60.42
9439;BME280;5176;42.622;25.386;2023-02-01T07:00:51;97276.53;;;3.44;62.82
9439;BME280;5176;42.622;25.386;2023-02-01T07:03:19;97275.75;;;3.42;63.09
9439;BME280;5176;42.622;25.386;2023-02-01T07:05:46;97280.16;;;3.39;65.29
9439;BME280;5176;42.622;25.386;2023-02-01T07:08:13;97264.56;;;3.40;66.61
9439;BME280;5176;42.622;25.386;2023-02-01T07:10:40;97269.94;;;3.36;66.47
9439;BME280;5176;42.622;25.386;2023-02-01T07:13:08;97274.34;;;3.32;67.69
9439;BME280;5176;42.622;25.386;2023-02-01T07:15:35;97287.22;;;3.35;68.15
9439;BME280;5176;42.622;25.386;2023-02-01T07:18:04;97286.53;;;3.30;68.44
9439;BME280;5176;42.622;25.386;2023-02-01T07:20:31;97284.84;;;3.29;68.79
9439;BME280;5176;42.622;25.386;2023-02-01T07:22:58;97287.31;;;3.32;69.60
9439;BME280;5176;42.622;25.386;2023-02-01T07:25:25;97296.03;;;3.30;68.88
9439;BME280;5176;42.622;25.386;2023-02-01T07:27:52;97302.53;;;3.16;68.75
9439;BME280;5176;42.622;25.386;2023-02-01T07:30:20;97310.69;;;3.04;68.62
9439;BME280;5176;42.622;25.386;2023-02-01T07:32:47;97314.91;;;3.08;69.31
9439;BME280;5176;42.622;25.386;2023-02-01T07:35:15;97319.13;;;3.11;69.95
9439;BME280;5176;42.622;25.386;2023-02-01T07:37:43;97314.59;;;3.17;69.97
9439;BME280;5176;42.622;25.386;2023-02-01T07:40:11;97312.50;;;3.27;69.54
9439;BME280;5176;42.622;25.386;2023-02-01T07:42:38;97316.81;;;3.28;69.30
9439;BME280;5176;42.622;25.386;2023-02-01T07:45:06;97309.28;;;3.20;68.49
9439;BME280;5176;42.622;25.386;2023-02-01T07:47:34;97318.53;;;3.27;68.84
9439;BME280;5176;42.622;25.386;2023-02-01T07:50:01;97318.41;;;3.32;68.92
9439;BME280;5176;42.622;25.386;2023-02-01T07:52:29;97315.59;;;3.38;70.34
9439;BME280;5176;42.622;25.386;2023-02-01T07:54:57;97323.88;;;3.49;69.89
9439;BME280;5176;42.622;25.386;2023-02-01T07:57:24;97324.72;;;3.50;69.59
9439;BME280;5176;42.622;25.386;2023-02-01T07:59:51;97324.78;;;3.48;71.25
9439;BME280;5176;42.622;25.386;2023-02-01T08:02:35;97325.41;;;3.55;71.88
9439;BME280;5176;42.622;25.386;2023-02-01T08:05:03;97330.38;;;3.61;70.01
9439;BME280;5176;42.622;25.386;2023-02-01T08:07:32;97325.88;;;3.66;69.89
9439;BME280;5176;42.622;25.386;2023-02-01T08:09:59;97323.22;;;3.68;70.12
9439;BME280;5176;42.622;25.386;2023-02-01T08:12:26;97325.88;;;3.66;68.52
9439;BME280;5176;42.622;25.386;2023-02-01T08:14:53;97311.84;;;3.72;70.64
9439;BME280;5176;42.622;25.386;2023-02-01T08:17:22;97317.03;;;3.72;69.67
9439;BME280;5176;42.622;25.386;2023-02-01T08:19:49;97323.97;;;3.71;68.99
9439;BME280;5176;42.622;25.386;2023-02-01T08:22:16;97319.69;;;3.70;69.32
9439;BME280;5176;42.622;25.386;2023-02-01T08:24:47;97328.09;;;3.77;69.45
9439;BME280;5176;42.622;25.386;2023-02-01T08:27:15;97331.47;;;3.79;70.38
9439;BME280;5176;42.622;25.386;2023-02-01T08:29:42;97333.34;;;3.75;69.10
9439;BME280;5176;42.622;25.386;2023-02-01T08:32:09;97333.22;;;3.78;68.83
9439;BME280;5176;42.622;25.386;2023-02-01T08:34:36;97332.38;;;3.78;70.80
9439;BME280;5176;42.622;25.386;2023-02-01T08:37:03;97343.50;;;3.81;70.52
9439;BME280;5176;42.622;25.386;2023-02-01T08:39:30;97333.06;;;3.83;70.26
9439;BME280;5176;42.622;25.386;2023-02-01T08:41:59;97350.25;;;3.86;69.62
9439;BME280;5176;42.622;25.386;2023-02-01T08:44:43;97342.59;;;3.82;70.05
9439;BME280;5176;42.622;25.386;2023-02-01T08:47:10;97341.56;;;3.87;70.52
9439;BME280;5176;42.622;25.386;2023-02-01T08:49:38;97334.91;;;3.79;70.94
9439;BME280;5176;42.622;25.386;2023-02-01T08:52:05;97339.38;;;3.76;71.40
9439;BME280;5176;42.622;25.386;2023-02-01T08:54:32;97340.94;;;3.80;71.49
9439;BME280;5176;42.622;25.386;2023-02-01T08:57:01;97339.88;;;3.86;72.03
9439;BME280;5176;42.622;25.386;2023-02-01T08:59:28;97337.84;;;3.94;72.35
9439;BME280;5176;42.622;25.386;2023-02-01T09:01:55;97336.09;;;3.94;73.16
9439;BME280;5176;42.622;25.386;2023-02-01T09:04:23;97327.16;;;4.03;73.21
9439;BME280;5176;42.622;25.386;2023-02-01T09:06:50;97322.06;;;4.00;74.36
9439;BME280;5176;42.622;25.386;2023-02-01T09:09:17;97329.06;;;3.98;75.35
9439;BME280;5176;42.622;25.386;2023-02-01T09:11:45;97326.97;;;4.07;76.24
9439;BME280;5176;42.622;25.386;2023-02-01T09:14:13;97317.47;;;4.08;76.88
9439;BME280;5176;42.622;25.386;2023-02-01T09:16:40;97321.47;;;4.17;78.10
9439;BME280;5176;42.622;25.386;2023-02-01T09:19:08;97319.44;;;4.25;78.09
9439;BME280;5176;42.622;25.386;2023-02-01T09:21:35;97314.47;;;4.19;78.42
9439;BME280;5176;42.622;25.386;2023-02-01T09:24:03;97322.78;;;4.27;78.82
9439;BME280;5176;42.622;25.386;2023-02-01T09:26:30;97314.97;;;4.28;79.02
9439;BME280;5176;42.622;25.386;2023-02-01T09:28:57;97312.47;;;4.25;78.73
9439;BME280;5176;42.622;25.386;2023-02-01T09:31:26;97314.06;;;4.29;79.26
9439;BME280;5176;42.622;25.386;2023-02-01T09:33:53;97314.00;;;4.31;79.74
9439;BME280;5176;42.622;25.386;2023-02-01T09:36:21;97316.38;;;4.37;79.33
9439;BME280;5176;42.622;25.386;2023-02-01T09:38:49;97317.91;;;4.43;79.17
9439;BME280;5176;42.622;25.386;2023-02-01T09:41:34;97314.41;;;4.44;78.71
9439;BME280;5176;42.622;25.386;2023-02-01T09:44:11;97313.00;;;4.35;78.89
9439;BME280;5176;42.622;25.386;2023-02-01T09:46:45;97307.63;;;4.40;81.68
9439;BME280;5176;42.622;25.386;2023-02-01T09:49:16;97300.97;;;4.32;82.03
9439;BME280;5176;42.622;25.386;2023-02-01T09:51:46;97298.72;;;4.23;82.11
9439;BME280;5176;42.622;25.386;2023-02-01T09:54:17;97296.44;;;4.16;83.11
9439;BME280;5176;42.622;25.386;2023-02-01T09:56:47;97294.22;;;4.05;84.01
9439;BME280;5176;42.622;25.386;2023-02-01T09:59:26;97293.25;;;4.07;84.98
9439;BME280;5176;42.622;25.386;2023-02-01T10:01:58;97287.13;;;4.10;84.00
9439;BME280;5176;42.622;25.386;2023-02-01T10:04:26;97280.25;;;4.09;84.54
9439;BME280;5176;42.622;25.386;2023-02-01T10:07:06;97272.28;;;4.14;85.62
9439;BME280;5176;42.622;25.386;2023-02-01T10:09:47;97281.28;;;4.27;85.52
9439;BME280;5176;42.622;25.386;2023-02-01T10:15:36;97274.25;;;4.30;84.70
9439;BME280;5176;42.622;25.386;2023-02-01T10:21:14;97261.50;;;4.46;83.46
9439;BME280;5176;42.622;25.386;2023-02-01T10:24:02;97253.53;;;4.51;82.38
9439;BME280;5176;42.622;25.386;2023-02-01T10:26:35;97245.38;;;4.60;81.68
9439;BME280;5176;42.622;25.386;2023-02-01T10:29:14;97245.53;;;4.57;82.08
9439;BME280;5176;42.622;25.386;2023-02-01T10:31:43;97237.91;;;4.52;81.57
9439;BME280;5176;42.622;25.386;2023-02-01T10:34:17;97244.38;;;4.42;80.79
9439;BME280;5176;42.622;25.386;2023-02-01T10:36:52;97236.53;;;4.44;82.22
9439;BME280;5176;42.622;25.386;2023-02-01T10:39:20;97239.41;;;4.58;81.86
9439;BME280;5176;42.622;25.386;2023-02-01T10:41:47;97245.28;;;4.63;82.16
9439;BME280;5176;42.622;25.386;2023-02-01T10:44:19;97238.44;;;4.60;80.76
9439;BME280;5176;42.622;25.386;2023-02-01T10:46:49;97239.19;;;4.64;80.47
9439;BME280;5176;42.622;25.386;2023-02-01T10:49:24;97232.97;;;4.68;79.56
9439;BME280;5176;42.622;25.386;2023-02-01T10:51:57;97229.31;;;4.72;76.46
9439;BME280;5176;42.622;25.386;2023-02-01T10:54:33;97222.78;;;4.84;76.27
9439;BME280;5176;42.622;25.386;2023-02-01T10:57:00;97223.44;;;4.89;76.78
9439;BME280;5176;42.622;25.386;2023-02-01T10:59:29;97222.53;;;4.90;76.59
9439;BME280;5176;42.622;25.386;2023-02-01T11:01:59;97209.03;;;5.02;75.58
9439;BME280;5176;42.622;25.386;2023-02-01T11:04:33;97207.63;;;5.15;75.00
9439;BME280;5176;42.622;25.386;2023-02-01T11:07:07;97206.25;;;5.46;74.19
9439;BME280;5176;42.622;25.386;2023-02-01T11:09:39;97197.00;;;5.59;72.59
9439;BME280;5176;42.622;25.386;2023-02-01T11:12:23;97190.78;;;5.82;72.55
9439;BME280;5176;42.622;25.386;2023-02-01T11:14:57;97195.66;;;5.90;70.16
9439;BME280;5176;42.622;25.386;2023-02-01T11:17:28;97187.63;;;5.94;66.79
9439;BME280;5176;42.622;25.386;2023-02-01T11:20:02;97193.13;;;6.07;67.74
9439;BME280;5176;42.622;25.386;2023-02-01T11:22:31;97179.47;;;6.21;69.39
9439;BME280;5176;42.622;25.386;2023-02-01T11:24:59;97175.81;;;6.25;65.44
9439;BME280;5176;42.622;25.386;2023-02-01T11:27:28;97174.97;;;6.24;63.38
9439;BME280;5176;42.622;25.386;2023-02-01T11:30:00;97170.69;;;6.41;64.18
9439;BME280;5176;42.622;25.386;2023-02-01T11:32:30;97165.44;;;6.60;62.38
9439;BME280;5176;42.622;25.386;2023-02-01T11:35:03;97163.53;;;6.80;62.02
9439;BME280;5176;42.622;25.386;2023-02-01T11:37:33;97160.53;;;6.88;63.85
9439;BME280;5176;42.622;25.386;2023-02-01T11:40:08;97156.34;;;6.86;57.83
9439;BME280;5176;42.622;25.386;2023-02-01T11:42:57;97156.09;;;7.07;58.68
9439;BME280;5176;42.622;25.386;2023-02-01T11:45:27;97156.75;;;7.28;62.53
9439;BME280;5176;42.622;25.386;2023-02-01T11:47:56;97146.19;;;7.47;58.39
9439;BME280;5176;42.622;25.386;2023-02-01T11:50:31;97153.78;;;7.52;57.32
9439;BME280;5176;42.622;25.386;2023-02-01T11:53:22;97158.09;;;7.69;55.93
9439;BME280;5176;42.622;25.386;2023-02-01T11:55:58;97149.63;;;7.81;57.72
9439;BME280;5176;42.622;25.386;2023-02-01T11:58:50;97143.41;;;7.99;58.42
9439;BME280;5176;42.622;25.386;2023-02-01T12:01:37;97142.72;;;8.11;56.36
9439;BME280;5176;42.622;25.386;2023-02-01T12:04:30;97138.50;;;8.09;55.04
9439;BME280;5176;42.622;25.386;2023-02-01T12:07:11;97141.13;;;8.09;58.74
9439;BME280;5176;42.622;25.386;2023-02-01T12:09:49;97136.50;;;7.98;56.80
9439;BME280;5176;42.622;25.386;2023-02-01T12:12:25;97127.00;;;7.97;55.85
9439;BME280;5176;42.622;25.386;2023-02-01T12:18:08;97133.63;;;7.87;56.04
9439;BME280;5176;42.622;25.386;2023-02-01T12:21:01;97128.31;;;7.88;56.85
9439;BME280;5176;42.622;25.386;2023-02-01T12:23:57;97135.41;;;7.86;56.59
9439;BME280;5176;42.622;25.386;2023-02-01T12:26:44;97115.88;;;7.78;56.82
9439;BME280;5176;42.622;25.386;2023-02-01T12:29:33;97120.34;;;7.76;55.47
9439;BME280;5176;42.622;25.386;2023-02-01T12:32:14;97119.47;;;7.75;56.20
9439;BME280;5176;42.622;25.386;2023-02-01T12:35:09;97108.78;;;7.80;58.00
9439;BME280;5176;42.622;25.386;2023-02-01T12:38:02;97103.66;;;7.78;55.80
9439;BME280;5176;42.622;25.386;2023-02-01T12:40:45;97107.03;;;7.96;56.70
9439;BME280;5176;42.622;25.386;2023-02-01T12:43:21;97102.53;;;8.14;54.98
9439;BME280;5176;42.622;25.386;2023-02-01T12:45:55;97101.34;;;8.35;53.87
9439;BME280;5176;42.622;25.386;2023-02-01T12:48:28;97107.06;;;8.58;54.71
9439;BME280;5176;42.622;25.386;2023-02-01T12:50:59;97099.16;;;8.73;52.70
9439;BME280;5176;42.622;25.386;2023-02-01T12:53:37;97102.84;;;8.99;52.54
9439;BME280;5176;42.622;25.386;2023-02-01T12:56:14;97098.44;;;9.00;52.19
9439;BME280;5176;42.622;25.386;2023-02-01T12:58:45;97103.13;;;9.09;52.26
9439;BME280;5176;42.622;25.386;2023-02-01T13:01:20;97105.94;;;9.20;50.18
9439;BME280;5176;42.622;25.386;2023-02-01T13:03:54;97106.88;;;9.19;50.84
9439;BME280;5176;42.622;25.386;2023-02-01T13:06:28;97105.47;;;9.28;50.58
9439;BME280;5176;42.622;25.386;2023-02-01T13:09:02;97101.44;;;9.22;49.57
9439;BME280;5176;42.622;25.386;2023-02-01T13:11:34;97089.69;;;9.15;49.22
9439;BME280;5176;42.622;25.386;2023-02-01T13:14:05;97100.13;;;9.15;49.14
9439;BME280;5176;42.622;25.386;2023-02-01T13:16:40;97091.75;;;9.10;48.94
9439;BME280;5176;42.622;25.386;2023-02-01T13:19:13;97088.00;;;9.00;50.07
9439;BME280;5176;42.622;25.386;2023-02-01T13:21:46;97095.84;;;9.00;49.91
9439;BME280;5176;42.622;25.386;2023-02-01T13:24:24;97097.88;;;8.95;51.01
9439;BME280;5176;42.622;25.386;2023-02-01T13:26:55;97099.38;;;8.99;50.89
9439;BME280;5176;42.622;25.386;2023-02-01T13:29:23;97092.66;;;8.95;49.92
9439;BME280;5176;42.622;25.386;2023-02-01T13:32:15;97098.56;;;8.98;50.97
9439;BME280;5176;42.622;25.386;2023-02-01T13:37:59;97087.41;;;8.81;50.90
9439;BME280;5176;42.622;25.386;2023-02-01T13:40:41;97093.28;;;8.70;51.83
9439;BME280;5176;42.622;25.386;2023-02-01T13:43:15;97094.25;;;8.53;51.10
9439;BME280;5176;42.622;25.386;2023-02-01T13:45:50;97095.25;;;8.35;50.37
9439;BME280;5176;42.622;25.386;2023-02-01T13:48:22;97090.31;;;8.14;47.57
9439;BME280;5176;42.622;25.386;2023-02-01T13:50:54;97096.31;;;8.16;49.23
9439;BME280;5176;42.622;25.386;2023-02-01T13:53:27;97102.97;;;8.06;47.48
9439;BME280;5176;42.622;25.386;2023-02-01T13:55:57;97091.50;;;8.09;48.79
9439;BME280;5176;42.622;25.386;2023-02-01T13:58:34;97111.22;;;8.14;49.66
9439;BME280;5176;42.622;25.386;2023-02-01T14:04:46;97092.72;;;8.03;51.32
9439;BME280;5176;42.622;25.386;2023-02-01T14:07:21;97103.66;;;7.94;51.92
9439;BME280;5176;42.622;25.386;2023-02-01T14:09:49;97097.59;;;7.93;52.10